createdAt,value
2017-08-25T00:01:48.839Z,16.00
2017-08-25T00:04:16.279Z,16.00
2017-08-25T00:06:43.716Z,16.00
2017-08-25T00:09:11.157Z,16.00
2017-08-25T00:11:38.594Z,15.90
2017-08-25T00:14:06.052Z,15.90
2017-08-25T00:16:33.544Z,15.90
2017-08-25T00:19:01.169Z,15.90
2017-08-25T00:21:28.651Z,15.80
2017-08-25T00:23:56.103Z,15.90
2017-08-25T00:26:23.574Z,15.80
2017-08-25T00:28:51.030Z,15.80
2017-08-25T00:31:18.586Z,15.80
2017-08-25T00:33:46.035Z,15.80
2017-08-25T00:36:13.478Z,15.70
2017-08-25T00:38:40.915Z,15.70
2017-08-25T00:41:08.414Z,15.60
2017-08-25T00:43:36.040Z,15.60
2017-08-25T00:46:03.458Z,15.60
2017-08-25T00:48:30.890Z,15.60
2017-08-25T00:50:58.425Z,15.60
2017-08-25T00:53:25.854Z,15.60
2017-08-25T00:55:53.355Z,15.50
2017-08-25T00:58:20.794Z,15.50
2017-08-25T01:00:48.232Z,15.50
2017-08-25T01:03:15.707Z,15.50
2017-08-25T01:05:43.275Z,15.40
2017-08-25T01:08:10.699Z,15.40
2017-08-25T01:10:38.905Z,15.30
2017-08-25T01:13:06.464Z,15.30
2017-08-25T01:15:33.883Z,15.30
2017-08-25T01:18:01.450Z,15.30
2017-08-25T01:20:28.948Z,15.30
2017-08-25T01:22:56.425Z,15.30
2017-08-25T01:25:23.852Z,15.30
2017-08-25T01:27:51.377Z,15.30
2017-08-25T01:30:18.783Z,15.30
2017-08-25T01:32:46.226Z,15.20
2017-08-25T01:35:14.427Z,15.20
2017-08-25T01:37:41.938Z,15.10
2017-08-25T01:40:09.391Z,15.10
2017-08-25T01:42:36.850Z,15.10
2017-08-25T01:45:04.284Z,15.10
2017-08-25T01:47:31.763Z,15.00
2017-08-25T01:49:59.199Z,15.00
2017-08-25T01:52:26.679Z,15.00
2017-08-25T01:54:54.114Z,14.90
2017-08-25T01:57:21.549Z,14.90
2017-08-25T01:59:48.991Z,14.80
2017-08-25T02:02:17.199Z,14.80
2017-08-25T02:04:44.674Z,14.80
2017-08-25T02:07:12.107Z,14.80
2017-08-25T02:09:39.554Z,14.80
2017-08-25T02:12:07.160Z,14.80
2017-08-25T02:14:34.703Z,14.80
2017-08-25T02:17:02.161Z,14.80
2017-08-25T02:19:29.609Z,14.80
2017-08-25T02:21:57.156Z,14.80
2017-08-25T02:24:24.576Z,14.80
2017-08-25T02:26:52.766Z,14.80
2017-08-25T02:29:20.222Z,14.80
2017-08-25T02:31:47.696Z,14.80
2017-08-25T02:34:15.122Z,14.90
2017-08-25T02:36:42.739Z,14.90
2017-08-25T02:39:10.190Z,14.90
2017-08-25T02:41:37.642Z,14.90
2017-08-25T02:44:05.062Z,14.90
2017-08-25T02:46:32.550Z,14.90
2017-08-25T02:49:00.002Z,14.90
2017-08-25T02:51:27.442Z,14.90
2017-08-25T02:53:54.875Z,14.90
2017-08-25T02:56:22.473Z,14.90
2017-08-25T02:58:50.055Z,14.80
2017-08-25T03:01:17.494Z,14.80
2017-08-25T03:03:44.939Z,14.80
2017-08-25T03:06:12.410Z,14.80
2017-08-25T03:08:39.872Z,14.80
2017-08-25T03:11:07.302Z,14.70
2017-08-25T03:13:34.730Z,14.70
2017-08-25T03:16:02.320Z,14.70
2017-08-25T03:18:29.795Z,14.70
2017-08-25T03:20:57.218Z,14.70
2017-08-25T03:23:24.714Z,14.70
2017-08-25T03:25:52.171Z,14.70
2017-08-25T03:28:19.626Z,14.70
2017-08-25T03:30:47.081Z,14.60
2017-08-25T03:33:14.513Z,14.70
2017-08-25T03:35:42.073Z,14.70
2017-08-25T03:38:09.571Z,14.70
2017-08-25T03:40:36.987Z,14.70
2017-08-25T03:43:04.418Z,14.70
2017-08-25T03:45:31.918Z,14.70
2017-08-25T03:47:59.358Z,14.70
2017-08-25T03:50:27.218Z,14.70
2017-08-25T03:52:54.695Z,14.70
2017-08-25T03:55:22.134Z,14.70
2017-08-25T03:57:49.567Z,14.80
2017-08-25T04:00:17.000Z,14.80
2017-08-25T04:02:44.534Z,14.80
2017-08-25T04:05:11.970Z,14.80
2017-08-25T04:07:39.438Z,14.90
2017-08-25T04:10:06.883Z,14.90
2017-08-25T04:12:34.313Z,14.90
2017-08-25T04:15:01.805Z,15.00
2017-08-25T04:17:29.238Z,15.00
2017-08-25T04:19:56.671Z,15.00
2017-08-25T04:22:24.166Z,15.00
2017-08-25T04:24:51.708Z,15.10
2017-08-25T04:27:19.118Z,15.10
2017-08-25T04:29:46.650Z,15.10
2017-08-25T04:32:14.095Z,15.10
2017-08-25T04:34:41.545Z,15.10
2017-08-25T04:37:08.983Z,15.10
2017-08-25T04:39:36.436Z,15.10
2017-08-25T04:42:03.914Z,15.20
2017-08-25T04:44:31.366Z,15.20
2017-08-25T04:46:58.823Z,15.20
2017-08-25T04:49:26.262Z,15.20
2017-08-25T04:51:53.733Z,15.20
2017-08-25T04:54:21.186Z,15.20
2017-08-25T04:56:48.629Z,15.30
2017-08-25T04:59:16.110Z,15.30
2017-08-25T05:01:43.674Z,15.30
2017-08-25T05:04:11.127Z,15.30
2017-08-25T05:06:38.574Z,15.30
2017-08-25T05:09:06.003Z,15.30
2017-08-25T05:11:33.456Z,15.30
2017-08-25T05:14:00.958Z,15.40
2017-08-25T05:16:28.382Z,15.30
2017-08-25T05:18:55.844Z,15.40
2017-08-25T05:21:23.339Z,15.30
2017-08-25T05:23:50.762Z,15.30
2017-08-25T05:26:18.233Z,15.30
2017-08-25T05:28:45.672Z,15.30
2017-08-25T05:31:13.149Z,15.40
2017-08-25T05:33:41.186Z,15.40
2017-08-25T05:36:08.681Z,15.50
2017-08-25T05:38:36.135Z,15.50
2017-08-25T05:41:03.611Z,15.50
2017-08-25T05:43:31.032Z,15.50
2017-08-25T05:45:58.492Z,15.50
2017-08-25T05:48:25.956Z,15.60
2017-08-25T05:50:53.407Z,15.60
2017-08-25T05:53:20.843Z,15.60
2017-08-25T05:55:48.332Z,15.70
2017-08-25T05:58:15.762Z,15.70
2017-08-25T06:00:43.215Z,15.70
2017-08-25T06:03:10.870Z,15.70
2017-08-25T06:05:38.293Z,15.70
2017-08-25T06:08:06.543Z,15.70
2017-08-25T06:10:34.084Z,15.70
2017-08-25T06:13:01.531Z,15.80
2017-08-25T06:15:29.011Z,15.70
2017-08-25T06:17:56.554Z,15.80
2017-08-25T06:20:24.102Z,15.80
2017-08-25T06:22:51.527Z,15.80
2017-08-25T06:25:18.971Z,15.80
2017-08-25T06:27:46.483Z,15.80
2017-08-25T06:30:13.936Z,15.90
2017-08-25T06:32:41.403Z,15.90
2017-08-25T06:35:08.852Z,15.90
2017-08-25T06:37:36.394Z,15.90
2017-08-25T06:40:03.842Z,16.00
2017-08-25T06:42:31.334Z,16.10
2017-08-25T06:44:58.776Z,16.10
2017-08-25T06:47:26.243Z,16.10
2017-08-25T06:49:53.696Z,16.10
2017-08-25T06:52:21.149Z,16.00
2017-08-25T06:54:48.594Z,16.00
2017-08-25T06:57:16.074Z,16.10
2017-08-25T06:59:43.520Z,16.10
2017-08-25T07:02:10.967Z,16.20
2017-08-25T07:04:38.446Z,16.20
2017-08-25T07:07:05.874Z,16.20
2017-08-25T07:09:33.314Z,16.30
2017-08-25T07:12:00.921Z,16.30
2017-08-25T07:14:28.487Z,16.30
2017-08-25T07:16:56.123Z,16.40
2017-08-25T07:19:23.574Z,16.50
2017-08-25T07:21:51.033Z,16.60
2017-08-25T07:24:18.471Z,16.70
2017-08-25T07:26:45.954Z,16.80
2017-08-25T07:29:13.399Z,16.80
2017-08-25T07:31:40.840Z,17.00
2017-08-25T07:34:08.300Z,17.10
2017-08-25T07:36:35.754Z,17.30
2017-08-25T07:39:03.203Z,17.50
2017-08-25T07:41:30.707Z,17.60
2017-08-25T07:43:58.151Z,17.50
2017-08-25T07:46:25.575Z,17.60
2017-08-25T07:48:53.035Z,17.60
2017-08-25T07:51:20.517Z,17.60
2017-08-25T07:53:47.938Z,17.50
2017-08-25T07:56:15.426Z,17.60
2017-08-25T07:58:42.869Z,17.70
2017-08-25T08:01:10.338Z,17.90
2017-08-25T08:03:37.802Z,18.00
2017-08-25T08:06:05.238Z,18.20
2017-08-25T08:08:32.678Z,18.30
2017-08-25T08:11:00.119Z,18.50
2017-08-25T08:13:27.554Z,18.50
2017-08-25T08:15:55.030Z,18.40
2017-08-25T08:18:22.462Z,18.40
2017-08-25T08:20:50.681Z,18.50
2017-08-25T08:23:18.129Z,18.50
2017-08-25T08:25:45.545Z,18.60
2017-08-25T08:28:12.977Z,18.60
2017-08-25T08:30:40.533Z,18.70
2017-08-25T08:33:08.082Z,18.60
2017-08-25T08:35:35.544Z,18.70
2017-08-25T08:38:02.980Z,18.70
2017-08-25T08:40:30.404Z,18.60
2017-08-25T08:42:58.623Z,18.50
2017-08-25T08:45:26.102Z,18.50
2017-08-25T08:47:53.561Z,18.50
2017-08-25T08:50:20.990Z,18.70
2017-08-25T08:52:48.431Z,18.90
2017-08-25T08:55:15.858Z,18.90
2017-08-25T08:57:43.370Z,18.90
2017-08-25T09:00:10.831Z,19.00
2017-08-25T09:02:38.286Z,19.10
2017-08-25T09:05:05.714Z,19.20
2017-08-25T09:07:33.213Z,19.40
2017-08-25T09:10:00.647Z,19.50
2017-08-25T09:12:28.145Z,19.50
2017-08-25T09:14:55.610Z,19.60
2017-08-25T09:17:23.070Z,19.60
2017-08-25T09:19:50.503Z,19.60
2017-08-25T09:22:17.993Z,19.80
2017-08-25T09:24:45.414Z,19.90
2017-08-25T09:27:12.886Z,19.80
2017-08-25T09:29:40.332Z,19.70
2017-08-25T09:32:07.758Z,19.60
2017-08-25T09:34:35.189Z,19.50
2017-08-25T09:37:02.672Z,19.40
2017-08-25T09:39:30.203Z,19.30
2017-08-25T09:41:57.683Z,19.40
2017-08-25T09:44:25.149Z,19.30
2017-08-25T09:46:52.620Z,19.30
2017-08-25T09:49:20.042Z,19.30
2017-08-25T09:51:47.611Z,19.30
2017-08-25T09:54:15.047Z,19.30
2017-08-25T09:56:42.471Z,19.30
2017-08-25T09:59:09.911Z,19.40
2017-08-25T10:01:37.518Z,19.50
2017-08-25T10:04:04.946Z,19.60
2017-08-25T10:06:32.377Z,19.50
2017-08-25T10:09:00.110Z,19.40
2017-08-25T10:11:27.544Z,19.20
2017-08-25T10:13:55.127Z,19.10
2017-08-25T10:16:22.558Z,19.10
2017-08-25T10:18:49.979Z,19.20
2017-08-25T10:21:17.427Z,19.20
2017-08-25T10:23:45.679Z,19.60
2017-08-25T10:26:13.106Z,19.60
2017-08-25T10:28:40.541Z,19.60
2017-08-25T10:31:07.979Z,19.60
2017-08-25T10:33:43.354Z,19.70
2017-08-25T10:36:22.606Z,19.80
2017-08-25T10:39:01.934Z,19.70
2017-08-25T10:41:41.426Z,19.50
2017-08-25T10:44:21.630Z,19.80
2017-08-25T10:46:49.063Z,19.70
2017-08-25T10:49:16.491Z,20.00
2017-08-25T10:51:43.925Z,20.00
2017-08-25T10:54:11.460Z,19.80
2017-08-25T10:56:38.923Z,19.80
2017-08-25T10:59:06.400Z,19.80
2017-08-25T11:01:33.954Z,19.90
2017-08-25T11:04:01.370Z,20.00
2017-08-25T11:06:28.859Z,19.90
2017-08-25T11:08:56.274Z,19.90
2017-08-25T11:11:23.732Z,20.10
2017-08-25T11:13:51.191Z,20.20
2017-08-25T11:16:18.650Z,20.20
2017-08-25T11:18:46.074Z,20.30
2017-08-25T11:21:13.521Z,20.50
2017-08-25T11:23:41.468Z,20.60
2017-08-25T11:26:08.902Z,20.90
2017-08-25T11:28:36.341Z,21.00
2017-08-25T11:31:03.772Z,20.90
2017-08-25T11:33:31.230Z,20.80
2017-08-25T11:35:58.670Z,20.80
2017-08-25T11:38:26.170Z,20.80
2017-08-25T11:40:53.621Z,20.70
2017-08-25T11:43:21.094Z,20.80
2017-08-25T11:45:48.548Z,20.70
2017-08-25T11:48:16.300Z,20.80
2017-08-25T11:50:43.724Z,20.80
2017-08-25T11:53:11.312Z,20.90
2017-08-25T11:55:38.742Z,21.00
2017-08-25T11:58:06.248Z,21.00
2017-08-25T12:00:33.771Z,20.90
2017-08-25T12:03:01.232Z,20.80
2017-08-25T12:05:28.663Z,20.80
2017-08-25T12:07:56.127Z,20.90
2017-08-25T12:10:23.628Z,21.00
2017-08-25T12:12:51.094Z,20.90
2017-08-25T12:15:18.625Z,20.90
2017-08-25T12:17:46.108Z,20.80
2017-08-25T12:20:13.545Z,20.90
2017-08-25T12:22:41.042Z,20.90
2017-08-25T12:25:08.672Z,21.00
2017-08-25T12:27:36.132Z,20.90
2017-08-25T12:30:03.580Z,20.80
2017-08-25T12:32:31.034Z,20.70
2017-08-25T12:34:58.501Z,20.70
2017-08-25T12:37:25.931Z,20.80
2017-08-25T12:39:53.385Z,21.00
2017-08-25T12:42:20.887Z,21.00
2017-08-25T12:44:48.405Z,21.00
2017-08-25T12:47:15.890Z,20.90
2017-08-25T12:49:43.422Z,20.80
2017-08-25T12:52:10.920Z,20.70
2017-08-25T12:54:38.391Z,20.80
2017-08-25T12:57:05.911Z,20.70
2017-08-25T12:59:33.379Z,20.90
2017-08-25T13:02:00.831Z,21.10
2017-08-25T13:04:28.291Z,21.30
2017-08-25T13:06:55.770Z,21.40
2017-08-25T13:09:23.198Z,21.50
2017-08-25T13:11:50.629Z,21.70
2017-08-25T13:14:18.187Z,21.80
2017-08-25T13:16:45.626Z,21.70
2017-08-25T13:19:13.135Z,21.60
2017-08-25T13:21:40.671Z,21.40
2017-08-25T13:24:08.117Z,21.40
2017-08-25T13:26:35.592Z,21.40
2017-08-25T13:29:03.045Z,21.50
2017-08-25T13:31:30.507Z,21.50
2017-08-25T13:33:57.971Z,21.50
2017-08-25T13:36:25.449Z,21.60
2017-08-25T13:38:52.979Z,21.70
2017-08-25T13:41:20.532Z,21.70
2017-08-25T13:43:48.199Z,21.60
2017-08-25T13:46:15.645Z,21.50
2017-08-25T13:48:43.114Z,21.50
2017-08-25T13:51:10.668Z,21.40
2017-08-25T13:53:38.112Z,21.40
2017-08-25T13:56:05.587Z,21.40
2017-08-25T13:58:33.047Z,21.40
2017-08-25T14:01:00.503Z,21.30
2017-08-25T14:03:27.937Z,21.40
2017-08-25T14:05:55.501Z,21.60
2017-08-25T14:08:23.054Z,21.50
2017-08-25T14:10:50.519Z,21.50
2017-08-25T14:13:17.987Z,21.50
2017-08-25T14:15:45.432Z,21.40
2017-08-25T14:18:12.868Z,21.30
2017-08-25T14:20:40.339Z,21.40
2017-08-25T14:23:07.807Z,21.40
2017-08-25T14:25:36.081Z,21.40
2017-08-25T14:28:03.527Z,21.30
2017-08-25T14:30:31.002Z,21.30
2017-08-25T14:32:58.426Z,21.40
2017-08-25T14:35:25.854Z,21.40
2017-08-25T14:37:53.354Z,21.50
2017-08-25T14:40:20.802Z,21.40
2017-08-25T14:42:48.354Z,21.60
2017-08-25T14:45:15.946Z,21.50
2017-08-25T14:47:43.398Z,21.40
2017-08-25T14:50:10.897Z,21.40
2017-08-25T14:52:38.374Z,21.40
2017-08-25T14:55:05.856Z,21.40
2017-08-25T14:57:33.398Z,21.40
2017-08-25T15:00:00.960Z,21.50
2017-08-25T15:02:28.382Z,21.60
2017-08-25T15:04:55.879Z,21.50
2017-08-25T15:07:23.310Z,21.60
2017-08-25T15:09:50.798Z,21.60
2017-08-25T15:12:18.208Z,21.50
2017-08-25T15:14:45.711Z,21.60
2017-08-25T15:17:13.155Z,21.90
2017-08-25T15:19:40.655Z,22.00
2017-08-25T15:22:08.088Z,21.90
2017-08-25T15:24:35.530Z,22.00
2017-08-25T15:27:02.999Z,22.30
2017-08-25T15:29:30.479Z,22.10
2017-08-25T15:31:58.021Z,22.00
2017-08-25T15:34:25.494Z,22.40
2017-08-25T15:36:52.953Z,23.10
2017-08-25T15:42:13.183Z,24.10
2017-08-25T15:44:40.716Z,24.00
2017-08-25T15:47:08.143Z,24.30
2017-08-25T15:49:35.636Z,24.90
2017-08-25T15:52:03.090Z,25.40
2017-08-25T15:54:30.626Z,25.30
2017-08-25T15:56:58.193Z,25.10
2017-08-25T15:59:25.671Z,24.90
2017-08-25T16:01:53.111Z,26.00
2017-08-25T16:04:20.667Z,26.30
2017-08-25T16:06:48.135Z,25.80
2017-08-25T16:09:15.598Z,25.40
2017-08-25T16:11:43.125Z,25.50
2017-08-25T16:14:10.619Z,26.30
2017-08-25T16:16:38.044Z,25.90
2017-08-25T16:19:05.516Z,25.30
2017-08-25T16:21:32.962Z,24.90
2017-08-25T16:24:00.418Z,24.50
2017-08-25T16:26:27.893Z,24.50
2017-08-25T16:28:55.602Z,25.00
2017-08-25T16:31:23.071Z,25.30
2017-08-25T16:33:50.623Z,25.20
2017-08-25T16:36:18.144Z,25.10
2017-08-25T16:38:45.671Z,24.60
2017-08-25T16:41:13.400Z,24.40
2017-08-25T16:43:40.899Z,24.50
2017-08-25T16:46:08.330Z,24.60
2017-08-25T16:48:35.861Z,24.80
2017-08-25T16:51:03.390Z,25.00
2017-08-25T16:53:31.017Z,25.00
2017-08-25T16:55:58.570Z,24.90
2017-08-25T16:58:26.096Z,25.10
2017-08-25T17:00:53.603Z,25.50
2017-08-25T17:03:21.182Z,25.70
2017-08-25T17:05:49.591Z,26.10
2017-08-25T17:08:17.043Z,26.00
2017-08-25T17:10:44.473Z,26.10
2017-08-25T17:13:11.970Z,26.10
2017-08-25T17:15:39.397Z,26.10
2017-08-25T17:18:06.895Z,25.40
2017-08-25T17:20:34.355Z,25.10
2017-08-25T17:23:01.810Z,25.00
2017-08-25T17:25:29.258Z,24.90
2017-08-25T17:27:56.800Z,24.50
2017-08-25T17:30:24.244Z,24.10
2017-08-25T17:32:51.734Z,23.70
2017-08-25T17:35:19.267Z,23.60
2017-08-25T17:37:46.728Z,23.40
2017-08-25T17:40:14.284Z,23.00
2017-08-25T17:42:41.722Z,22.70
2017-08-25T17:45:09.228Z,22.60
2017-08-25T17:47:36.703Z,22.50
2017-08-25T17:50:04.217Z,22.20
2017-08-25T17:52:31.755Z,22.10
2017-08-25T17:54:59.306Z,21.70
2017-08-25T17:57:26.890Z,21.40
2017-08-25T17:59:55.090Z,21.20
2017-08-25T18:02:22.546Z,21.20
2017-08-25T18:04:50.002Z,21.10
2017-08-25T18:07:17.436Z,21.00
2017-08-25T18:09:44.867Z,20.90
2017-08-25T18:12:12.344Z,20.60
2017-08-25T18:14:39.774Z,20.50
2017-08-25T18:17:07.211Z,20.40
2017-08-25T18:19:34.670Z,20.20
2017-08-25T18:22:02.304Z,20.10
2017-08-25T18:24:29.757Z,20.00
2017-08-25T18:26:57.311Z,20.00
2017-08-25T18:29:24.769Z,20.00
2017-08-25T18:31:52.233Z,20.00
2017-08-25T18:34:19.692Z,20.00
2017-08-25T18:36:47.200Z,20.00
2017-08-25T18:39:14.690Z,20.00
2017-08-25T18:41:42.120Z,20.00
2017-08-25T18:44:09.686Z,20.00
2017-08-25T18:46:37.171Z,20.00
2017-08-25T18:49:04.694Z,20.00
2017-08-25T18:51:32.155Z,20.10
2017-08-25T18:53:59.597Z,20.10
2017-08-25T18:56:27.022Z,20.10
2017-08-25T18:58:54.523Z,20.10
2017-08-25T19:01:22.032Z,20.10
2017-08-25T19:03:49.592Z,20.00
2017-08-25T19:06:17.141Z,20.10
2017-08-25T19:08:44.566Z,20.10
2017-08-25T19:11:12.027Z,20.00
2017-08-25T19:13:39.520Z,19.90
2017-08-25T19:16:07.783Z,19.80
2017-08-25T19:18:35.353Z,19.80
2017-08-25T19:21:02.954Z,19.90
2017-08-25T19:23:30.423Z,19.90
2017-08-25T19:25:57.977Z,19.80
2017-08-25T19:28:25.458Z,19.60
2017-08-25T19:30:52.911Z,19.60
2017-08-25T19:33:20.449Z,19.40
2017-08-25T19:35:47.891Z,19.30
2017-08-25T19:38:15.474Z,19.20
2017-08-25T19:40:42.978Z,19.20
2017-08-25T19:43:11.230Z,19.20
2017-08-25T19:45:38.701Z,19.10
2017-08-25T19:48:06.157Z,19.20
2017-08-25T19:50:33.618Z,19.20
2017-08-25T19:53:01.054Z,19.00
2017-08-25T19:55:28.489Z,18.90
2017-08-25T19:57:56.054Z,18.90
2017-08-25T20:00:23.603Z,18.90
2017-08-25T20:02:51.047Z,18.90
2017-08-25T20:05:18.487Z,18.90
2017-08-25T20:07:45.958Z,18.90
2017-08-25T20:10:13.700Z,18.80
2017-08-25T20:12:41.202Z,18.80
2017-08-25T20:15:08.743Z,18.80
2017-08-25T20:17:36.210Z,18.90
2017-08-25T20:20:03.758Z,18.80
2017-08-25T20:22:31.204Z,18.70
2017-08-25T20:24:58.645Z,18.80
2017-08-25T20:27:26.113Z,18.80
2017-08-25T20:29:53.570Z,18.70
2017-08-25T20:32:21.027Z,18.60
2017-08-25T20:34:48.586Z,18.60
2017-08-25T20:37:16.063Z,18.40
2017-08-25T20:39:43.608Z,18.40
2017-08-25T20:42:11.063Z,18.30
2017-08-25T20:44:38.512Z,18.30
2017-08-25T20:47:05.947Z,18.40
2017-08-25T20:49:33.570Z,18.50
2017-08-25T20:52:01.170Z,18.50
2017-08-25T20:54:28.622Z,18.20
2017-08-25T20:56:56.127Z,18.10
2017-08-25T20:59:23.588Z,18.00
2017-08-25T21:01:51.077Z,18.10
2017-08-25T21:04:18.693Z,17.90
2017-08-25T21:06:46.268Z,17.90
2017-08-25T21:09:13.723Z,17.80
2017-08-25T21:11:41.156Z,17.70
2017-08-25T21:14:08.795Z,17.80
2017-08-25T21:16:36.268Z,17.80
2017-08-25T21:19:03.727Z,17.60
2017-08-25T21:21:31.189Z,17.50
2017-08-25T21:23:58.639Z,17.40
2017-08-25T21:26:26.197Z,17.40
2017-08-25T21:28:53.658Z,17.40
2017-08-25T21:31:21.181Z,17.50
2017-08-25T21:33:48.709Z,17.60
2017-08-25T21:36:16.142Z,17.60
2017-08-25T21:38:43.606Z,17.60
2017-08-25T21:41:11.066Z,17.60
2017-08-25T21:43:39.451Z,17.60
2017-08-25T21:46:07.676Z,17.60
2017-08-25T21:48:35.107Z,17.60
2017-08-25T21:51:02.559Z,17.70
2017-08-25T21:53:30.087Z,17.50
2017-08-25T21:55:57.538Z,17.40
2017-08-25T21:58:25.002Z,17.20
2017-08-25T22:00:52.455Z,17.10
2017-08-25T22:03:19.959Z,17.00
2017-08-25T22:05:47.409Z,16.90
2017-08-25T22:08:14.872Z,16.80
2017-08-25T22:10:42.364Z,16.70
2017-08-25T22:13:09.991Z,16.70
2017-08-25T22:15:37.489Z,16.80
2017-08-25T22:18:04.946Z,16.90
2017-08-25T22:20:32.387Z,16.90
2017-08-25T22:22:59.854Z,17.00
2017-08-25T22:25:27.349Z,17.10
2017-08-25T22:27:54.867Z,17.10
2017-08-25T22:30:22.410Z,17.10
2017-08-25T22:32:49.914Z,17.10
2017-08-25T22:35:17.563Z,16.90
2017-08-25T22:37:45.003Z,16.70
2017-08-25T22:40:12.449Z,16.60
2017-08-25T22:42:40.010Z,16.70
2017-08-25T22:45:07.457Z,16.70
2017-08-25T22:47:34.921Z,16.80
2017-08-25T22:50:02.373Z,16.80
2017-08-25T22:52:29.822Z,16.80
2017-08-25T22:54:57.265Z,16.90
2017-08-25T22:57:24.699Z,16.90
2017-08-25T22:59:52.351Z,16.90
2017-08-25T23:02:19.799Z,16.80
2017-08-25T23:04:47.451Z,16.80
2017-08-25T23:07:14.904Z,16.70
2017-08-25T23:09:43.074Z,16.50
2017-08-25T23:12:10.532Z,16.30
2017-08-25T23:14:37.990Z,16.30
2017-08-25T23:17:05.449Z,16.40
2017-08-25T23:19:33.726Z,16.40
2017-08-25T23:22:01.185Z,16.40
2017-08-25T23:24:29.446Z,16.50
2017-08-25T23:26:56.988Z,16.50
2017-08-25T23:29:24.538Z,16.60
2017-08-25T23:31:52.090Z,16.60
2017-08-25T23:34:19.571Z,16.60
2017-08-25T23:36:47.010Z,16.60
2017-08-25T23:39:14.503Z,16.60
2017-08-25T23:41:41.938Z,16.60
2017-08-25T23:44:09.487Z,16.60
2017-08-25T23:46:36.932Z,16.60
2017-08-25T23:49:04.406Z,16.50
2017-08-25T23:51:31.848Z,16.50
2017-08-25T23:53:59.312Z,16.20
2017-08-25T23:56:26.764Z,16.30
2017-08-25T23:58:54.213Z,16.30
